sensor_id;sensor_type;location;lat;lon;timestamp;P1;durP1;ratioP1;P2;durP2;ratioP2
61915;SDS011;47868;51.326;6.550;2023-02-28T00:01:13;8.73;;;6.13;;
61915;SDS011;47868;51.326;6.550;2023-02-28T00:03:39;10.17;;;6.63;;
61915;SDS011;47868;51.326;6.550;2023-02-28T00:06:06;7.93;;;6.43;;
61915;SDS011;47868;51.326;6.550;2023-02-28T00:08:32;8.73;;;6.17;;
61915;SDS011;47868;51.326;6.550;2023-02-28T00:11:02;11.17;;;6.07;;
61915;SDS011;47868;51.326;6.550;2023-02-28T00:13:28;10.30;;;6.83;;
61915;SDS011;47868;51.326;6.550;2023-02-28T00:15:58;9.23;;;6.17;;
61915;SDS011;47868;51.326;6.550;2023-02-28T00:18:24;11.20;;;6.60;;
61915;SDS011;47868;51.326;6.550;2023-02-28T00:20:50;8.33;;;6.20;;
61915;SDS011;47868;51.326;6.550;2023-02-28T00:23:16;9.37;;;6.77;;
61915;SDS011;47868;51.326;6.550;2023-02-28T00:25:42;8.57;;;5.77;;
61915;SDS011;47868;51.326;6.550;2023-02-28T00:28:08;13.23;;;6.73;;
61915;SDS011;47868;51.326;6.550;2023-02-28T00:30:34;11.53;;;6.30;;
61915;SDS011;47868;51.326;6.550;2023-02-28T00:33:00;12.87;;;7.13;;
61915;SDS011;47868;51.326;6.550;2023-02-28T00:35:26;11.07;;;6.73;;
61915;SDS011;47868;51.326;6.550;2023-02-28T00:37:52;8.40;;;5.83;;
61915;SDS011;47868;51.326;6.550;2023-02-28T00:40:18;10.83;;;5.93;;
61915;SDS011;47868;51.326;6.550;2023-02-28T00:42:44;11.17;;;6.20;;
61915;SDS011;47868;51.326;6.550;2023-02-28T00:45:10;11.17;;;6.87;;
61915;SDS011;47868;51.326;6.550;2023-02-28T00:47:36;8.50;;;6.00;;
61915;SDS011;47868;51.326;6.550;2023-02-28T00:50:03;12.70;;;6.47;;
61915;SDS011;47868;51.326;6.550;2023-02-28T00:52:29;8.83;;;6.27;;
61915;SDS011;47868;51.326;6.550;2023-02-28T00:54:55;9.70;;;6.17;;
61915;SDS011;47868;51.326;6.550;2023-02-28T00:57:21;10.00;;;6.00;;
61915;SDS011;47868;51.326;6.550;2023-02-28T00:59:47;9.23;;;5.47;;
61915;SDS011;47868;51.326;6.550;2023-02-28T01:02:13;7.90;;;5.40;;
61915;SDS011;47868;51.326;6.550;2023-02-28T01:04:39;9.67;;;5.50;;
61915;SDS011;47868;51.326;6.550;2023-02-28T01:07:06;6.17;;;5.53;;
61915;SDS011;47868;51.326;6.550;2023-02-28T01:09:32;11.17;;;6.20;;
61915;SDS011;47868;51.326;6.550;2023-02-28T01:11:58;9.47;;;5.60;;
61915;SDS011;47868;51.326;6.550;2023-02-28T01:14:24;11.00;;;5.30;;
61915;SDS011;47868;51.326;6.550;2023-02-28T01:16:50;8.23;;;4.80;;
61915;SDS011;47868;51.326;6.550;2023-02-28T01:19:16;9.63;;;6.07;;
61915;SDS011;47868;51.326;6.550;2023-02-28T01:21:42;9.37;;;5.30;;
61915;SDS011;47868;51.326;6.550;2023-02-28T01:24:08;8.57;;;5.23;;
61915;SDS011;47868;51.326;6.550;2023-02-28T01:26:34;10.17;;;5.73;;
61915;SDS011;47868;51.326;6.550;2023-02-28T01:29:00;9.03;;;5.30;;
61915;SDS011;47868;51.326;6.550;2023-02-28T01:31:26;6.90;;;5.20;;
61915;SDS011;47868;51.326;6.550;2023-02-28T01:33:52;7.60;;;5.73;;
61915;SDS011;47868;51.326;6.550;2023-02-28T01:36:20;10.90;;;6.40;;
61915;SDS011;47868;51.326;6.550;2023-02-28T01:38:46;9.30;;;6.03;;
61915;SDS011;47868;51.326;6.550;2023-02-28T01:41:17;8.97;;;6.13;;
61915;SDS011;47868;51.326;6.550;2023-02-28T01:46:10;11.23;;;6.97;;
61915;SDS011;47868;51.326;6.550;2023-02-28T01:48:37;11.50;;;7.03;;
61915;SDS011;47868;51.326;6.550;2023-02-28T01:51:05;10.27;;;6.70;;
61915;SDS011;47868;51.326;6.550;2023-02-28T01:53:35;10.57;;;6.60;;
61915;SDS011;47868;51.326;6.550;2023-02-28T01:56:06;12.37;;;6.93;;
61915;SDS011;47868;51.326;6.550;2023-02-28T01:58:32;12.20;;;7.07;;
61915;SDS011;47868;51.326;6.550;2023-02-28T02:00:59;9.87;;;6.97;;
61915;SDS011;47868;51.326;6.550;2023-02-28T02:03:24;13.93;;;7.37;;
61915;SDS011;47868;51.326;6.550;2023-02-28T02:05:51;7.40;;;6.57;;
61915;SDS011;47868;51.326;6.550;2023-02-28T02:08:18;11.97;;;7.67;;
61915;SDS011;47868;51.326;6.550;2023-02-28T02:10:45;9.93;;;6.93;;
61915;SDS011;47868;51.326;6.550;2023-02-28T02:13:19;13.63;;;7.53;;
61915;SDS011;47868;51.326;6.550;2023-02-28T02:15:54;9.43;;;7.03;;
61915;SDS011;47868;51.326;6.550;2023-02-28T02:18:30;7.87;;;6.20;;
61915;SDS011;47868;51.326;6.550;2023-02-28T02:36:48;12.30;;;6.53;;
61915;SDS011;47868;51.326;6.550;2023-02-28T02:42:01;8.77;;;6.80;;
61915;SDS011;47868;51.326;6.550;2023-02-28T02:47:15;7.87;;;5.70;;
61915;SDS011;47868;51.326;6.550;2023-02-28T02:49:42;10.23;;;5.73;;
61915;SDS011;47868;51.326;6.550;2023-02-28T02:52:10;10.90;;;6.30;;
61915;SDS011;47868;51.326;6.550;2023-02-28T02:54:38;8.47;;;6.47;;
61915;SDS011;47868;51.326;6.550;2023-02-28T02:57:07;8.07;;;6.23;;
61915;SDS011;47868;51.326;6.550;2023-02-28T02:59:34;9.93;;;7.23;;
61915;SDS011;47868;51.326;6.550;2023-02-28T03:02:01;9.67;;;6.60;;
61915;SDS011;47868;51.326;6.550;2023-02-28T03:04:30;11.93;;;7.30;;
61915;SDS011;47868;51.326;6.550;2023-02-28T03:06:58;10.50;;;6.80;;
61915;SDS011;47868;51.326;6.550;2023-02-28T03:09:24;11.37;;;7.40;;
61915;SDS011;47868;51.326;6.550;2023-02-28T03:11:51;13.67;;;7.63;;
61915;SDS011;47868;51.326;6.550;2023-02-28T03:19:40;12.97;;;7.50;;
61915;SDS011;47868;51.326;6.550;2023-02-28T03:22:20;15.13;;;8.80;;
61915;SDS011;47868;51.326;6.550;2023-02-28T03:24:51;12.87;;;7.93;;
61915;SDS011;47868;51.326;6.550;2023-02-28T03:32:42;8.93;;;6.70;;
61915;SDS011;47868;51.326;6.550;2023-02-28T03:35:11;10.70;;;6.30;;
61915;SDS011;47868;51.326;6.550;2023-02-28T03:37:40;9.37;;;5.90;;
61915;SDS011;47868;51.326;6.550;2023-02-28T03:40:08;8.63;;;5.80;;
61915;SDS011;47868;51.326;6.550;2023-02-28T03:42:37;8.10;;;5.43;;
61915;SDS011;47868;51.326;6.550;2023-02-28T03:45:04;6.70;;;4.87;;
61915;SDS011;47868;51.326;6.550;2023-02-28T03:47:37;6.87;;;5.53;;
61915;SDS011;47868;51.326;6.550;2023-02-28T03:50:05;8.60;;;5.33;;
61915;SDS011;47868;51.326;6.550;2023-02-28T03:52:33;11.30;;;5.80;;
61915;SDS011;47868;51.326;6.550;2023-02-28T03:55:02;7.77;;;5.53;;
61915;SDS011;47868;51.326;6.550;2023-02-28T04:00:04;9.20;;;5.93;;
61915;SDS011;47868;51.326;6.550;2023-02-28T04:02:32;9.10;;;5.07;;
61915;SDS011;47868;51.326;6.550;2023-02-28T04:04:59;7.67;;;5.20;;
61915;SDS011;47868;51.326;6.550;2023-02-28T04:07:28;7.93;;;4.87;;
61915;SDS011;47868;51.326;6.550;2023-02-28T04:09:54;8.33;;;4.47;;
61915;SDS011;47868;51.326;6.550;2023-02-28T04:12:20;9.17;;;5.83;;
61915;SDS011;47868;51.326;6.550;2023-02-28T04:14:48;8.07;;;4.87;;
61915;SDS011;47868;51.326;6.550;2023-02-28T04:17:14;9.20;;;4.83;;
61915;SDS011;47868;51.326;6.550;2023-02-28T04:19:40;6.77;;;4.90;;
61915;SDS011;47868;51.326;6.550;2023-02-28T04:22:07;7.60;;;4.67;;
61915;SDS011;47868;51.326;6.550;2023-02-28T04:24:33;7.60;;;5.37;;
61915;SDS011;47868;51.326;6.550;2023-02-28T04:26:59;9.47;;;5.37;;
61915;SDS011;47868;51.326;6.550;2023-02-28T04:29:29;9.63;;;5.43;;
61915;SDS011;47868;51.326;6.550;2023-02-28T04:31:57;11.50;;;5.40;;
61915;SDS011;47868;51.326;6.550;2023-02-28T04:34:23;7.90;;;5.03;;
61915;SDS011;47868;51.326;6.550;2023-02-28T04:36:50;9.03;;;5.67;;
61915;SDS011;47868;51.326;6.550;2023-02-28T04:39:18;9.70;;;5.10;;
61915;SDS011;47868;51.326;6.550;2023-02-28T04:41:45;7.87;;;5.17;;
61915;SDS011;47868;51.326;6.550;2023-02-28T04:44:11;9.30;;;5.67;;
61915;SDS011;47868;51.326;6.550;2023-02-28T04:46:37;7.93;;;5.20;;
61915;SDS011;47868;51.326;6.550;2023-02-28T04:49:03;7.57;;;5.13;;
61915;SDS011;47868;51.326;6.550;2023-02-28T04:51:29;10.50;;;5.30;;
61915;SDS011;47868;51.326;6.550;2023-02-28T04:53:56;7.83;;;5.40;;
61915;SDS011;47868;51.326;6.550;2023-02-28T04:56:22;10.70;;;5.37;;
61915;SDS011;47868;51.326;6.550;2023-02-28T04:58:48;10.33;;;5.47;;
61915;SDS011;47868;51.326;6.550;2023-02-28T05:03:51;9.50;;;5.63;;
61915;SDS011;47868;51.326;6.550;2023-02-28T05:06:17;13.77;;;6.03;;
61915;SDS011;47868;51.326;6.550;2023-02-28T05:08:45;9.67;;;6.60;;
61915;SDS011;47868;51.326;6.550;2023-02-28T05:11:18;10.10;;;6.77;;
61915;SDS011;47868;51.326;6.550;2023-02-28T05:13:44;7.20;;;5.07;;
61915;SDS011;47868;51.326;6.550;2023-02-28T05:16:10;8.63;;;5.37;;
61915;SDS011;47868;51.326;6.550;2023-02-28T05:18:36;8.97;;;6.03;;
61915;SDS011;47868;51.326;6.550;2023-02-28T05:21:02;12.33;;;5.80;;
61915;SDS011;47868;51.326;6.550;2023-02-28T05:23:28;11.63;;;5.53;;
61915;SDS011;47868;51.326;6.550;2023-02-28T05:25:54;7.70;;;5.30;;
61915;SDS011;47868;51.326;6.550;2023-02-28T05:28:20;5.87;;;4.90;;
61915;SDS011;47868;51.326;6.550;2023-02-28T05:30:46;8.57;;;5.60;;
61915;SDS011;47868;51.326;6.550;2023-02-28T05:33:13;8.77;;;5.43;;
61915;SDS011;47868;51.326;6.550;2023-02-28T05:35:39;7.70;;;5.37;;
61915;SDS011;47868;51.326;6.550;2023-02-28T05:38:06;12.13;;;5.83;;
61915;SDS011;47868;51.326;6.550;2023-02-28T05:40:32;10.03;;;5.73;;
61915;SDS011;47868;51.326;6.550;2023-02-28T05:42:58;8.60;;;6.57;;
61915;SDS011;47868;51.326;6.550;2023-02-28T05:45:24;10.60;;;5.23;;
61915;SDS011;47868;51.326;6.550;2023-02-28T05:47:53;10.10;;;5.60;;
61915;SDS011;47868;51.326;6.550;2023-02-28T05:50:19;10.47;;;5.60;;
61915;SDS011;47868;51.326;6.550;2023-02-28T05:52:48;14.27;;;5.70;;
61915;SDS011;47868;51.326;6.550;2023-02-28T05:55:14;8.70;;;5.27;;
61915;SDS011;47868;51.326;6.550;2023-02-28T05:57:40;10.60;;;6.33;;
61915;SDS011;47868;51.326;6.550;2023-02-28T06:00:09;8.43;;;5.87;;
61915;SDS011;47868;51.326;6.550;2023-02-28T06:02:35;10.00;;;6.13;;
61915;SDS011;47868;51.326;6.550;2023-02-28T06:05:01;11.67;;;5.77;;
61915;SDS011;47868;51.326;6.550;2023-02-28T06:07:27;11.80;;;6.03;;
61915;SDS011;47868;51.326;6.550;2023-02-28T06:09:53;11.33;;;6.50;;
61915;SDS011;47868;51.326;6.550;2023-02-28T06:12:19;9.80;;;5.90;;
61915;SDS011;47868;51.326;6.550;2023-02-28T06:14:45;11.67;;;5.67;;
61915;SDS011;47868;51.326;6.550;2023-02-28T06:17:11;8.60;;;5.73;;
61915;SDS011;47868;51.326;6.550;2023-02-28T06:19:37;6.17;;;4.70;;
61915;SDS011;47868;51.326;6.550;2023-02-28T06:22:04;10.47;;;5.73;;
61915;SDS011;47868;51.326;6.550;2023-02-28T06:24:30;8.43;;;5.90;;
61915;SDS011;47868;51.326;6.550;2023-02-28T06:26:57;7.60;;;5.37;;
61915;SDS011;47868;51.326;6.550;2023-02-28T06:29:29;12.17;;;6.70;;
61915;SDS011;47868;51.326;6.550;2023-02-28T06:31:55;9.23;;;5.57;;
61915;SDS011;47868;51.326;6.550;2023-02-28T06:34:21;10.95;;;6.10;;
61915;SDS011;47868;51.326;6.550;2023-02-28T06:36:48;8.93;;;5.97;;
61915;SDS011;47868;51.326;6.550;2023-02-28T06:39:16;12.83;;;6.53;;
61915;SDS011;47868;51.326;6.550;2023-02-28T06:41:42;11.50;;;5.60;;
61915;SDS011;47868;51.326;6.550;2023-02-28T06:44:19;14.53;;;7.03;;
61915;SDS011;47868;51.326;6.550;2023-02-28T06:46:45;15.17;;;8.33;;
61915;SDS011;47868;51.326;6.550;2023-02-28T06:49:12;9.03;;;6.60;;
61915;SDS011;47868;51.326;6.550;2023-02-28T06:51:39;10.10;;;5.57;;
61915;SDS011;47868;51.326;6.550;2023-02-28T06:54:06;10.53;;;4.90;;
61915;SDS011;47868;51.326;6.550;2023-02-28T06:56:33;8.97;;;5.17;;
61915;SDS011;47868;51.326;6.550;2023-02-28T06:58:59;7.27;;;4.57;;
61915;SDS011;47868;51.326;6.550;2023-02-28T07:01:25;8.90;;;5.47;;
61915;SDS011;47868;51.326;6.550;2023-02-28T07:03:52;10.10;;;4.60;;
61915;SDS011;47868;51.326;6.550;2023-02-28T07:06:19;7.53;;;4.93;;
61915;SDS011;47868;51.326;6.550;2023-02-28T07:08:47;8.30;;;5.20;;
61915;SDS011;47868;51.326;6.550;2023-02-28T07:11:13;6.47;;;4.40;;
61915;SDS011;47868;51.326;6.550;2023-02-28T07:13:39;5.93;;;4.40;;
61915;SDS011;47868;51.326;6.550;2023-02-28T07:16:06;9.50;;;5.47;;
61915;SDS011;47868;51.326;6.550;2023-02-28T07:18:33;10.23;;;4.87;;
61915;SDS011;47868;51.326;6.550;2023-02-28T07:21:03;7.53;;;4.17;;
61915;SDS011;47868;51.326;6.550;2023-02-28T07:23:29;8.37;;;4.63;;
61915;SDS011;47868;51.326;6.550;2023-02-28T07:25:55;8.57;;;4.73;;
61915;SDS011;47868;51.326;6.550;2023-02-28T07:28:21;8.20;;;4.43;;
61915;SDS011;47868;51.326;6.550;2023-02-28T07:30:47;8.23;;;4.60;;
61915;SDS011;47868;51.326;6.550;2023-02-28T07:33:13;8.43;;;4.50;;
61915;SDS011;47868;51.326;6.550;2023-02-28T07:35:39;11.67;;;4.53;;
61915;SDS011;47868;51.326;6.550;2023-02-28T07:38:05;11.77;;;4.90;;
61915;SDS011;47868;51.326;6.550;2023-02-28T07:40:32;7.73;;;5.00;;
61915;SDS011;47868;51.326;6.550;2023-02-28T07:42:59;11.13;;;4.87;;
61915;SDS011;47868;51.326;6.550;2023-02-28T07:45:25;5.73;;;3.87;;
61915;SDS011;47868;51.326;6.550;2023-02-28T07:47:53;7.37;;;3.70;;
61915;SDS011;47868;51.326;6.550;2023-02-28T07:50:20;7.30;;;4.03;;
61915;SDS011;47868;51.326;6.550;2023-02-28T07:52:46;4.70;;;4.00;;
61915;SDS011;47868;51.326;6.550;2023-02-28T07:55:12;6.77;;;4.13;;
61915;SDS011;47868;51.326;6.550;2023-02-28T07:57:38;7.40;;;3.67;;
61915;SDS011;47868;51.326;6.550;2023-02-28T08:00:05;6.07;;;3.53;;
61915;SDS011;47868;51.326;6.550;2023-02-28T08:02:32;7.30;;;3.50;;
61915;SDS011;47868;51.326;6.550;2023-02-28T08:04:59;8.20;;;3.97;;
61915;SDS011;47868;51.326;6.550;2023-02-28T08:07:25;4.43;;;3.27;;
61915;SDS011;47868;51.326;6.550;2023-02-28T08:09:51;6.43;;;3.73;;
61915;SDS011;47868;51.326;6.550;2023-02-28T08:12:17;5.63;;;3.23;;
61915;SDS011;47868;51.326;6.550;2023-02-28T08:14:43;4.53;;;3.50;;
61915;SDS011;47868;51.326;6.550;2023-02-28T08:17:09;5.40;;;3.20;;
61915;SDS011;47868;51.326;6.550;2023-02-28T08:19:35;5.60;;;3.40;;
61915;SDS011;47868;51.326;6.550;2023-02-28T08:22:01;5.47;;;3.20;;
61915;SDS011;47868;51.326;6.550;2023-02-28T08:24:27;4.83;;;3.37;;
61915;SDS011;47868;51.326;6.550;2023-02-28T08:26:54;3.20;;;2.90;;
61915;SDS011;47868;51.326;6.550;2023-02-28T08:29:20;4.53;;;3.00;;
61915;SDS011;47868;51.326;6.550;2023-02-28T08:31:46;6.87;;;3.23;;
61915;SDS011;47868;51.326;6.550;2023-02-28T08:34:13;5.67;;;3.30;;
61915;SDS011;47868;51.326;6.550;2023-02-28T08:36:39;3.53;;;3.07;;
61915;SDS011;47868;51.326;6.550;2023-02-28T08:39:06;5.37;;;3.73;;
61915;SDS011;47868;51.326;6.550;2023-02-28T08:41:32;4.53;;;3.40;;
61915;SDS011;47868;51.326;6.550;2023-02-28T08:43:58;3.83;;;3.17;;
61915;SDS011;47868;51.326;6.550;2023-02-28T08:46:25;7.20;;;3.83;;
61915;SDS011;47868;51.326;6.550;2023-02-28T08:48:51;4.63;;;3.60;;
61915;SDS011;47868;51.326;6.550;2023-02-28T08:51:18;4.93;;;3.07;;
61915;SDS011;47868;51.326;6.550;2023-02-28T08:53:50;4.83;;;3.97;;
61915;SDS011;47868;51.326;6.550;2023-02-28T08:56:17;5.37;;;3.90;;
61915;SDS011;47868;51.326;6.550;2023-02-28T08:58:43;12.17;;;4.03;;
61915;SDS011;47868;51.326;6.550;2023-02-28T09:01:10;5.80;;;3.50;;
61915;SDS011;47868;51.326;6.550;2023-02-28T09:03:37;5.13;;;3.07;;
61915;SDS011;47868;51.326;6.550;2023-02-28T09:06:03;6.47;;;4.17;;
61915;SDS011;47868;51.326;6.550;2023-02-28T09:08:29;6.13;;;3.27;;
61915;SDS011;47868;51.326;6.550;2023-02-28T09:10:56;8.20;;;3.03;;
61915;SDS011;47868;51.326;6.550;2023-02-28T09:13:23;5.17;;;2.73;;
61915;SDS011;47868;51.326;6.550;2023-02-28T09:15:49;3.67;;;2.83;;
61915;SDS011;47868;51.326;6.550;2023-02-28T09:18:15;4.10;;;3.13;;
61915;SDS011;47868;51.326;6.550;2023-02-28T09:20:41;6.30;;;2.97;;
61915;SDS011;47868;51.326;6.550;2023-02-28T09:23:07;4.37;;;3.50;;
61915;SDS011;47868;51.326;6.550;2023-02-28T09:25:34;4.47;;;3.23;;
61915;SDS011;47868;51.326;6.550;2023-02-28T09:28:01;2.77;;;2.57;;
61915;SDS011;47868;51.326;6.550;2023-02-28T09:30:27;3.90;;;2.63;;
61915;SDS011;47868;51.326;6.550;2023-02-28T09:32:54;4.40;;;3.40;;
61915;SDS011;47868;51.326;6.550;2023-02-28T09:35:20;4.03;;;2.93;;
61915;SDS011;47868;51.326;6.550;2023-02-28T09:37:47;8.27;;;3.30;;
61915;SDS011;47868;51.326;6.550;2023-02-28T09:40:13;5.50;;;2.75;;
61915;SDS011;47868;51.326;6.550;2023-02-28T09:42:42;3.30;;;2.60;;
61915;SDS011;47868;51.326;6.550;2023-02-28T09:45:24;2.90;;;2.60;;
61915;SDS011;47868;51.326;6.550;2023-02-28T09:47:53;5.63;;;4.50;;
61915;SDS011;47868;51.326;6.550;2023-02-28T09:52:52;5.38;;;3.30;;
61915;SDS011;47868;51.326;6.550;2023-02-28T09:57:44;4.72;;;3.40;;
61915;SDS011;47868;51.326;6.550;2023-02-28T10:02:48;4.50;;;2.95;;
61915;SDS011;47868;51.326;6.550;2023-02-28T10:05:19;3.10;;;2.80;;
61915;SDS011;47868;51.326;6.550;2023-02-28T10:10:19;3.90;;;2.75;;
61915;SDS011;47868;51.326;6.550;2023-02-28T10:12:46;3.30;;;2.42;;
61915;SDS011;47868;51.326;6.550;2023-02-28T10:15:13;3.30;;;2.67;;
61915;SDS011;47868;51.326;6.550;2023-02-28T10:17:40;3.28;;;2.78;;
61915;SDS011;47868;51.326;6.550;2023-02-28T10:20:10;2.92;;;2.38;;
61915;SDS011;47868;51.326;6.550;2023-02-28T10:22:45;3.50;;;2.40;;
61915;SDS011;47868;51.326;6.550;2023-02-28T10:25:17;7.05;;;2.80;;
61915;SDS011;47868;51.326;6.550;2023-02-28T10:27:43;3.97;;;2.55;;
61915;SDS011;47868;51.326;6.550;2023-02-28T10:30:09;3.75;;;2.70;;
61915;SDS011;47868;51.326;6.550;2023-02-28T10:32:37;3.65;;;3.00;;
61915;SDS011;47868;51.326;6.550;2023-02-28T10:35:23;5.13;;;2.80;;
61915;SDS011;47868;51.326;6.550;2023-02-28T10:37:50;6.72;;;2.42;;
61915;SDS011;47868;51.326;6.550;2023-02-28T10:42:55;5.10;;;2.75;;
61915;SDS011;47868;51.326;6.550;2023-02-28T10:45:21;2.72;;;2.20;;
61915;SDS011;47868;51.326;6.550;2023-02-28T10:48:01;3.47;;;2.17;;
61915;SDS011;47868;51.326;6.550;2023-02-28T10:52:55;3.17;;;2.65;;
61915;SDS011;47868;51.326;6.550;2023-02-28T10:55:30;3.80;;;2.50;;
61915;SDS011;47868;51.326;6.550;2023-02-28T10:57:56;6.80;;;2.35;;
61915;SDS011;47868;51.326;6.550;2023-02-28T11:00:23;2.67;;;2.30;;
61915;SDS011;47868;51.326;6.550;2023-02-28T11:02:53;3.47;;;2.60;;
61915;SDS011;47868;51.326;6.550;2023-02-28T11:05:23;2.60;;;2.33;;
61915;SDS011;47868;51.326;6.550;2023-02-28T11:07:53;3.10;;;2.20;;
61915;SDS011;47868;51.326;6.550;2023-02-28T11:10:20;2.80;;;2.20;;
61915;SDS011;47868;51.326;6.550;2023-02-28T11:12:46;2.35;;;2.13;;
61915;SDS011;47868;51.326;6.550;2023-02-28T11:18:18;2.88;;;2.25;;
61915;SDS011;47868;51.326;6.550;2023-02-28T11:20:33;2.75;;;2.30;;
61915;SDS011;47868;51.326;6.550;2023-02-28T11:23:00;2.47;;;2.00;;
61915;SDS011;47868;51.326;6.550;2023-02-28T11:25:29;3.63;;;1.85;;
61915;SDS011;47868;51.326;6.550;2023-02-28T11:27:57;3.30;;;2.17;;
61915;SDS011;47868;51.326;6.550;2023-02-28T11:33:14;2.40;;;2.10;;
61915;SDS011;47868;51.326;6.550;2023-02-28T11:35:44;5.57;;;2.13;;
61915;SDS011;47868;51.326;6.550;2023-02-28T11:38:11;5.38;;;2.05;;
61915;SDS011;47868;51.326;6.550;2023-02-28T11:41:01;3.03;;;2.40;;
61915;SDS011;47868;51.326;6.550;2023-02-28T11:43:40;5.07;;;2.50;;
61915;SDS011;47868;51.326;6.550;2023-02-28T12:11:16;2.58;;;1.90;;
61915;SDS011;47868;51.326;6.550;2023-02-28T12:21:25;2.75;;;2.28;;
61915;SDS011;47868;51.326;6.550;2023-02-28T12:24:08;3.40;;;2.38;;
61915;SDS011;47868;51.326;6.550;2023-02-28T12:26:40;3.75;;;2.10;;
61915;SDS011;47868;51.326;6.550;2023-02-28T12:29:12;4.13;;;2.08;;
61915;SDS011;47868;51.326;6.550;2023-02-28T12:31:41;3.33;;;2.40;;
61915;SDS011;47868;51.326;6.550;2023-02-28T12:34:12;7.05;;;2.42;;
61915;SDS011;47868;51.326;6.550;2023-02-28T12:36:41;6.53;;;3.00;;
61915;SDS011;47868;51.326;6.550;2023-02-28T12:39:12;2.90;;;2.22;;
61915;SDS011;47868;51.326;6.550;2023-02-28T12:41:42;2.65;;;2.30;;
61915;SDS011;47868;51.326;6.550;2023-02-28T12:44:26;3.63;;;2.70;;
61915;SDS011;47868;51.326;6.550;2023-02-28T12:46:54;2.88;;;2.33;;
61915;SDS011;47868;51.326;6.550;2023-02-28T12:49:33;2.72;;;2.40;;
61915;SDS011;47868;51.326;6.550;2023-02-28T12:52:00;2.42;;;1.90;;
61915;SDS011;47868;51.326;6.550;2023-02-28T12:57:42;4.03;;;2.45;;
61915;SDS011;47868;51.326;6.550;2023-02-28T12:59:49;3.55;;;2.20;;
61915;SDS011;47868;51.326;6.550;2023-02-28T13:10:02;4.07;;;2.55;;
61915;SDS011;47868;51.326;6.550;2023-02-28T13:12:29;3.90;;;1.95;;
61915;SDS011;47868;51.326;6.550;2023-02-28T13:15:12;2.63;;;2.40;;
61915;SDS011;47868;51.326;6.550;2023-02-28T13:17:44;2.63;;;2.10;;
61915;SDS011;47868;51.326;6.550;2023-02-28T13:20:20;3.15;;;2.35;;
61915;SDS011;47868;51.326;6.550;2023-02-28T13:22:48;3.35;;;2.28;;
61915;SDS011;47868;51.326;6.550;2023-02-28T13:27:47;5.07;;;2.05;;
61915;SDS011;47868;51.326;6.550;2023-02-28T13:31:03;4.40;;;2.05;;
61915;SDS011;47868;51.326;6.550;2023-02-28T13:33:20;2.90;;;2.63;;
61915;SDS011;47868;51.326;6.550;2023-02-28T13:35:46;4.40;;;2.10;;
61915;SDS011;47868;51.326;6.550;2023-02-28T13:38:15;2.28;;;2.03;;
61915;SDS011;47868;51.326;6.550;2023-02-28T13:40:41;2.83;;;2.50;;
61915;SDS011;47868;51.326;6.550;2023-02-28T13:43:08;3.63;;;2.28;;
61915;SDS011;47868;51.326;6.550;2023-02-28T13:45:34;2.40;;;2.15;;
61915;SDS011;47868;51.326;6.550;2023-02-28T13:48:15;3.20;;;2.20;;
61915;SDS011;47868;51.326;6.550;2023-02-28T13:50:41;2.63;;;2.40;;
61915;SDS011;47868;51.326;6.550;2023-02-28T14:00:43;7.10;;;2.20;;
61915;SDS011;47868;51.326;6.550;2023-02-28T14:03:27;2.58;;;2.20;;
61915;SDS011;47868;51.326;6.550;2023-02-28T14:08:35;2.97;;;2.38;;
61915;SDS011;47868;51.326;6.550;2023-02-28T14:11:05;2.83;;;2.60;;
61915;SDS011;47868;51.326;6.550;2023-02-28T14:16:09;4.70;;;2.63;;
61915;SDS011;47868;51.326;6.550;2023-02-28T14:18:36;5.32;;;3.72;;
61915;SDS011;47868;51.326;6.550;2023-02-28T14:21:10;4.70;;;3.65;;
61915;SDS011;47868;51.326;6.550;2023-02-28T14:23:46;4.18;;;2.95;;
61915;SDS011;47868;51.326;6.550;2023-02-28T14:26:19;7.22;;;2.40;;
61915;SDS011;47868;51.326;6.550;2023-02-28T14:31:25;4.45;;;2.67;;
61915;SDS011;47868;51.326;6.550;2023-02-28T14:34:59;4.90;;;2.92;;
61915;SDS011;47868;51.326;6.550;2023-02-28T14:36:50;6.53;;;2.70;;
61915;SDS011;47868;51.326;6.550;2023-02-28T14:39:20;3.72;;;3.42;;
61915;SDS011;47868;51.326;6.550;2023-02-28T14:41:47;3.42;;;3.13;;
61915;SDS011;47868;51.326;6.550;2023-02-28T14:46:43;3.90;;;2.78;;
61915;SDS011;47868;51.326;6.550;2023-02-28T14:49:15;4.78;;;3.60;;
61915;SDS011;47868;51.326;6.550;2023-02-28T14:51:41;4.32;;;3.45;;
61915;SDS011;47868;51.326;6.550;2023-02-28T14:54:12;3.45;;;2.58;;
61915;SDS011;47868;51.326;6.550;2023-02-28T14:56:39;4.82;;;3.00;;
61915;SDS011;47868;51.326;6.550;2023-02-28T14:59:06;3.47;;;3.00;;
61915;SDS011;47868;51.326;6.550;2023-02-28T15:01:48;5.22;;;3.60;;
61915;SDS011;47868;51.326;6.550;2023-02-28T15:04:22;4.35;;;3.75;;
61915;SDS011;47868;51.326;6.550;2023-02-28T15:09:34;6.93;;;5.65;;
61915;SDS011;47868;51.326;6.550;2023-02-28T15:12:00;5.13;;;3.10;;
61915;SDS011;47868;51.326;6.550;2023-02-28T15:14:27;3.13;;;2.50;;
61915;SDS011;47868;51.326;6.550;2023-02-28T15:16:57;4.22;;;2.90;;
61915;SDS011;47868;51.326;6.550;2023-02-28T15:19:29;3.30;;;3.00;;
61915;SDS011;47868;51.326;6.550;2023-02-28T15:22:15;6.05;;;2.80;;
61915;SDS011;47868;51.326;6.550;2023-02-28T15:24:44;5.10;;;2.75;;
61915;SDS011;47868;51.326;6.550;2023-02-28T15:27:14;3.78;;;3.33;;
61915;SDS011;47868;51.326;6.550;2023-02-28T15:29:43;4.43;;;3.45;;
61915;SDS011;47868;51.326;6.550;2023-02-28T15:32:20;4.93;;;3.10;;
61915;SDS011;47868;51.326;6.550;2023-02-28T15:34:47;3.42;;;3.13;;
61915;SDS011;47868;51.326;6.550;2023-02-28T15:39:45;4.78;;;3.38;;
61915;SDS011;47868;51.326;6.550;2023-02-28T15:42:12;4.93;;;3.00;;
61915;SDS011;47868;51.326;6.550;2023-02-28T15:44:38;3.65;;;3.00;;
61915;SDS011;47868;51.326;6.550;2023-02-28T15:47:21;5.53;;;3.13;;
61915;SDS011;47868;51.326;6.550;2023-02-28T15:49:51;4.65;;;3.20;;
61915;SDS011;47868;51.326;6.550;2023-02-28T15:52:40;4.40;;;3.47;;
61915;SDS011;47868;51.326;6.550;2023-02-28T15:55:17;5.82;;;3.50;;
61915;SDS011;47868;51.326;6.550;2023-02-28T15:57:43;4.97;;;3.30;;
61915;SDS011;47868;51.326;6.550;2023-02-28T16:00:12;4.57;;;3.83;;
61915;SDS011;47868;51.326;6.550;2023-02-28T16:02:38;6.47;;;3.15;;
61915;SDS011;47868;51.326;6.550;2023-02-28T16:07:40;5.90;;;3.13;;
61915;SDS011;47868;51.326;6.550;2023-02-28T16:10:07;4.22;;;3.30;;
61915;SDS011;47868;51.326;6.550;2023-02-28T16:12:34;5.47;;;4.88;;
61915;SDS011;47868;51.326;6.550;2023-02-28T16:15:01;5.85;;;3.65;;
61915;SDS011;47868;51.326;6.550;2023-02-28T16:17:31;6.35;;;3.67;;
61915;SDS011;47868;51.326;6.550;2023-02-28T16:19:57;4.70;;;3.65;;
61915;SDS011;47868;51.326;6.550;2023-02-28T16:22:23;8.85;;;4.15;;
61915;SDS011;47868;51.326;6.550;2023-02-28T16:24:49;6.43;;;3.78;;
61915;SDS011;47868;51.326;6.550;2023-02-28T16:27:25;5.03;;;3.70;;
61915;SDS011;47868;51.326;6.550;2023-02-28T16:29:53;4.75;;;4.03;;
61915;SDS011;47868;51.326;6.550;2023-02-28T16:32:19;6.43;;;3.88;;
61915;SDS011;47868;51.326;6.550;2023-02-28T16:34:45;4.75;;;3.70;;
61915;SDS011;47868;51.326;6.550;2023-02-28T16:37:12;5.32;;;3.75;;
61915;SDS011;47868;51.326;6.550;2023-02-28T16:39:38;4.43;;;3.83;;
61915;SDS011;47868;51.326;6.550;2023-02-28T16:42:04;6.00;;;3.80;;
61915;SDS011;47868;51.326;6.550;2023-02-28T16:44:32;7.97;;;4.00;;
61915;SDS011;47868;51.326;6.550;2023-02-28T16:47:02;9.30;;;4.95;;
61915;SDS011;47868;51.326;6.550;2023-02-28T16:49:29;11.40;;;8.38;;
61915;SDS011;47868;51.326;6.550;2023-02-28T16:51:55;10.73;;;8.48;;
61915;SDS011;47868;51.326;6.550;2023-02-28T16:54:21;6.95;;;4.63;;
61915;SDS011;47868;51.326;6.550;2023-02-28T16:56:48;5.00;;;4.40;;
61915;SDS011;47868;51.326;6.550;2023-02-28T16:59:15;5.93;;;5.00;;
61915;SDS011;47868;51.326;6.550;2023-02-28T17:01:43;7.75;;;6.60;;
61915;SDS011;47868;51.326;6.550;2023-02-28T17:04:10;6.90;;;5.10;;